createdAt,value
2023-04-03T00:00:25.371Z,21.60
2023-04-03T00:05:49.991Z,21.60
2023-04-03T00:10:54.348Z,21.70
2023-04-03T00:15:58.467Z,22.10
2023-04-03T00:21:03.349Z,22.40
2023-04-03T00:26:07.635Z,22.70
2023-04-03T00:31:12.041Z,22.80
2023-04-03T00:36:17.780Z,22.90
2023-04-03T00:41:22.822Z,23.00
2023-04-03T00:46:26.908Z,23.10
2023-04-03T00:51:31.338Z,23.10
2023-04-03T00:56:37.608Z,23.00
2023-04-03T01:01:41.834Z,23.10
2023-04-03T01:06:46.260Z,23.10
2023-04-03T01:11:50.497Z,23.20
2023-04-03T01:16:56.367Z,23.20
2023-04-03T01:22:14.931Z,23.20
2023-04-03T01:27:18.962Z,23.30
2023-04-03T01:32:23.316Z,23.30
2023-04-03T01:37:27.449Z,23.40
2023-04-03T01:42:31.571Z,23.40
2023-04-03T01:47:35.935Z,23.40
2023-04-03T01:52:39.894Z,23.40
2023-04-03T01:57:44.090Z,23.50
2023-04-03T02:02:48.343Z,23.70
2023-04-03T02:07:52.555Z,23.80
2023-04-03T02:12:57.106Z,23.80
2023-04-03T02:18:02.499Z,23.70
2023-04-03T02:23:13.013Z,23.60
2023-04-03T02:28:17.079Z,23.60
2023-04-03T02:33:21.703Z,23.60
2023-04-03T02:38:27.598Z,23.50
2023-04-03T02:43:31.934Z,23.30
2023-04-03T02:48:36.694Z,23.20
2023-04-03T02:53:41.053Z,23.10
2023-04-03T02:58:49.870Z,23.00
2023-04-03T03:03:54.636Z,22.90
2023-04-03T03:08:58.770Z,22.80
2023-04-03T03:14:03.610Z,22.70
2023-04-03T03:19:08.250Z,22.60
2023-04-03T03:24:13.501Z,22.50
2023-04-03T03:29:17.645Z,22.40
2023-04-03T03:34:22.401Z,22.40
2023-04-03T03:39:26.767Z,22.30
2023-04-03T03:44:31.283Z,22.20
2023-04-03T03:49:35.936Z,22.20
2023-04-03T03:54:40.376Z,22.10
2023-04-03T03:59:45.648Z,22.10
2023-04-03T04:04:50.585Z,22.00
2023-04-03T04:09:55.540Z,22.00
2023-04-03T04:14:59.800Z,21.90
2023-04-03T04:20:06.682Z,21.90
2023-04-03T04:25:11.530Z,21.90
2023-04-03T04:30:16.479Z,22.40
2023-04-03T04:35:21.701Z,22.70
2023-04-03T04:40:26.816Z,23.00
2023-04-03T04:45:31.678Z,23.10
2023-04-03T04:50:36.820Z,23.20
2023-04-03T04:55:41.458Z,23.30
2023-04-03T05:00:46.620Z,23.30
2023-04-03T05:05:52.082Z,23.30
2023-04-03T05:10:56.584Z,23.30
2023-04-03T05:16:01.817Z,23.30
2023-04-03T05:21:06.656Z,23.30
2023-04-03T05:26:11.053Z,23.40
2023-04-03T05:31:16.683Z,23.40
2023-04-03T05:36:21.456Z,23.40
2023-04-03T05:41:28.302Z,23.40
2023-04-03T05:46:33.244Z,23.40
2023-04-03T05:51:41.744Z,23.50
2023-04-03T05:56:52.799Z,23.50
2023-04-03T06:01:57.828Z,23.50
2023-04-03T06:07:02.280Z,23.40
2023-04-03T06:12:06.610Z,23.50
2023-04-03T06:17:11.891Z,23.60
2023-04-03T06:22:16.418Z,23.40
2023-04-03T06:27:20.452Z,23.50
2023-04-03T06:32:24.775Z,23.40
2023-04-03T06:37:32.207Z,23.30
2023-04-03T06:42:36.869Z,23.20
2023-04-03T06:47:47.891Z,23.00
2023-04-03T06:52:51.907Z,22.90
2023-04-03T06:57:56.719Z,22.80
2023-04-03T07:03:01.518Z,22.90
2023-04-03T07:08:06.128Z,22.60
2023-04-03T07:13:10.150Z,22.50
2023-04-03T07:18:14.346Z,22.40
2023-04-03T07:23:19.540Z,22.30
2023-04-03T07:28:24.859Z,22.30
2023-04-03T07:33:28.933Z,22.20
2023-04-03T07:38:33.301Z,22.20
2023-04-03T07:43:37.824Z,22.20
2023-04-03T07:48:41.970Z,22.10
2023-04-03T07:53:46.189Z,22.10
2023-04-03T07:58:50.218Z,22.10
2023-04-03T08:03:54.403Z,22.00
2023-04-03T08:08:58.712Z,22.10
2023-04-03T08:14:04.016Z,22.20
2023-04-03T08:19:15.065Z,22.10
2023-04-03T08:24:24.920Z,22.10
2023-04-03T08:29:29.722Z,22.00
2023-04-03T08:34:38.404Z,21.90
2023-04-03T08:39:42.559Z,21.80
2023-04-03T08:44:49.357Z,21.70
2023-04-03T08:50:02.872Z,21.70
2023-04-03T08:55:29.502Z,21.70
2023-04-03T09:00:42.170Z,21.70
2023-04-03T09:06:02.794Z,21.60
2023-04-03T09:11:23.433Z,21.80
2023-04-03T09:16:33.045Z,22.40
2023-04-03T09:21:43.547Z,22.80
2023-04-03T09:26:47.462Z,22.90
2023-04-03T09:31:59.228Z,23.10
2023-04-03T09:37:07.316Z,23.10
2023-04-03T09:42:26.382Z,23.20
2023-04-03T09:47:35.014Z,23.30
2023-04-03T09:52:40.535Z,23.40
2023-04-03T09:57:46.790Z,23.50
2023-04-03T10:03:00.365Z,23.40
2023-04-03T10:08:15.393Z,23.40
2023-04-03T10:13:23.248Z,23.50
2023-04-03T10:18:43.612Z,23.60
2023-04-03T10:24:23.188Z,23.60
2023-04-03T10:29:30.157Z,23.70
2023-04-03T10:34:40.114Z,23.80
2023-04-03T10:40:00.330Z,23.80
2023-04-03T10:45:30.557Z,23.70
2023-04-03T10:50:49.936Z,23.60
2023-04-03T10:56:23.550Z,23.50
2023-04-03T11:01:40.714Z,23.40
2023-04-03T11:07:01.896Z,23.20
2023-04-03T11:12:28.641Z,23.10
2023-04-03T11:17:45.846Z,23.10
2023-04-03T11:23:00.280Z,23.00
2023-04-03T11:28:13.913Z,22.90
2023-04-03T11:33:36.890Z,22.90
2023-04-03T11:38:46.486Z,22.90
2023-04-03T11:44:42.963Z,22.80
2023-04-03T11:50:02.416Z,22.80
2023-04-03T11:55:32.564Z,22.80
2023-04-03T12:00:48.566Z,22.70
2023-04-03T12:06:08.292Z,22.70
2023-04-03T12:11:12.906Z,22.60
2023-04-03T12:16:26.307Z,22.50
2023-04-03T12:21:49.538Z,22.50
2023-04-03T12:26:59.649Z,22.40
2023-04-03T12:32:41.025Z,22.40
2023-04-03T12:38:05.714Z,22.40
2023-04-03T12:43:43.401Z,22.30
2023-04-03T12:48:56.411Z,22.30
2023-04-03T12:54:14.854Z,22.30
2023-04-03T12:59:25.080Z,22.30
2023-04-03T13:04:31.270Z,22.20
2023-04-03T13:09:35.391Z,22.30
2023-04-03T13:14:40.031Z,22.30
2023-04-03T13:19:47.183Z,22.20
2023-04-03T13:24:53.412Z,22.20
2023-04-03T13:30:00.994Z,22.10
2023-04-03T13:35:33.451Z,22.10
2023-04-03T13:46:23.677Z,22.10
2023-04-03T13:51:31.312Z,22.00
2023-04-03T13:56:38.590Z,22.00
2023-04-03T14:01:56.814Z,21.90
2023-04-03T14:07:01.430Z,21.90
2023-04-03T14:12:24.212Z,21.90
2023-04-03T14:17:37.531Z,21.90
2023-04-03T14:22:42.009Z,21.90
2023-04-03T14:27:51.141Z,21.80
2023-04-03T14:32:56.030Z,21.90
2023-04-03T14:38:00.235Z,21.90
2023-04-03T14:43:05.307Z,21.90
2023-04-03T14:48:18.217Z,21.90
2023-04-03T14:53:37.779Z,21.80
2023-04-03T14:58:47.781Z,21.70
2023-04-03T15:03:55.460Z,21.70
2023-04-03T15:08:59.547Z,21.80
2023-04-03T15:14:03.620Z,21.90
2023-04-03T15:19:07.753Z,21.90
2023-04-03T15:24:11.920Z,21.90
2023-04-03T15:29:16.082Z,21.90
2023-04-03T15:34:20.523Z,21.70
2023-04-03T15:39:27.010Z,21.70
2023-04-03T15:44:31.363Z,21.80
2023-04-03T15:49:36.220Z,21.80
2023-04-03T15:54:40.455Z,21.70
2023-04-03T15:59:44.689Z,21.60
2023-04-03T16:04:49.029Z,21.60
2023-04-03T16:09:54.079Z,21.50
2023-04-03T16:14:58.109Z,21.50
2023-04-03T16:20:03.956Z,21.60
2023-04-03T16:25:11.012Z,22.00
2023-04-03T16:30:15.680Z,22.40
2023-04-03T16:35:21.866Z,22.60
2023-04-03T16:40:26.211Z,22.70
2023-04-03T16:45:33.675Z,22.80
2023-04-03T16:50:38.790Z,23.00
2023-04-03T16:55:45.436Z,23.10
2023-04-03T17:00:50.065Z,23.10
2023-04-03T17:05:54.573Z,23.20
2023-04-03T17:11:01.151Z,23.30
2023-04-03T17:16:11.719Z,23.40
2023-04-03T17:21:23.619Z,23.40
2023-04-03T17:26:34.141Z,23.50
2023-04-03T17:31:44.788Z,23.60
2023-04-03T17:36:56.640Z,23.60
2023-04-03T17:42:05.281Z,23.70
2023-04-03T17:47:11.996Z,23.70
2023-04-03T17:52:23.833Z,23.70
2023-04-03T17:57:32.600Z,23.60
2023-04-03T18:02:38.138Z,23.40
2023-04-03T18:07:43.921Z,23.30
2023-04-03T18:12:51.964Z,23.10
2023-04-03T18:17:58.960Z,23.00
2023-04-03T18:23:05.704Z,22.90
2023-04-03T18:28:11.632Z,23.00
2023-04-03T18:33:17.787Z,23.00
2023-04-03T18:38:23.986Z,22.80
2023-04-03T18:43:29.800Z,22.70
2023-04-03T18:48:41.625Z,22.50
2023-04-03T18:53:51.946Z,22.50
2023-04-03T18:58:58.249Z,22.40
2023-04-03T19:04:04.711Z,22.30
2023-04-03T19:09:11.258Z,22.30
2023-04-03T19:14:17.324Z,22.30
2023-04-03T19:19:23.590Z,22.30
2023-04-03T19:24:30.231Z,22.30
2023-04-03T19:29:37.678Z,22.20
2023-04-03T19:34:44.542Z,22.10
2023-04-03T19:39:49.926Z,22.00
2023-04-03T19:44:56.429Z,22.00
2023-04-03T19:50:02.357Z,22.00
2023-04-03T19:55:09.822Z,22.10
2023-04-03T20:00:24.461Z,22.10
2023-04-03T20:05:30.767Z,22.00
2023-04-03T20:10:41.712Z,21.90
2023-04-03T20:15:48.174Z,21.80
2023-04-03T20:21:04.700Z,21.80
2023-04-03T20:26:15.513Z,21.70
2023-04-03T20:31:23.063Z,21.80
2023-04-03T20:36:31.448Z,21.80
2023-04-03T20:41:38.759Z,21.70
2023-04-03T20:51:53.909Z,21.60
2023-04-03T20:56:58.338Z,22.00
2023-04-03T21:02:02.991Z,22.50
2023-04-03T21:07:44.987Z,22.70
2023-04-03T21:13:26.976Z,22.80
2023-04-03T21:18:31.109Z,22.90
2023-04-03T21:23:35.152Z,22.90
2023-04-03T21:28:39.386Z,22.90
2023-04-03T21:33:43.532Z,23.10
2023-04-03T21:38:48.902Z,23.20
2023-04-03T21:43:53.245Z,23.20
2023-04-03T21:48:57.273Z,23.20
2023-04-03T21:54:01.305Z,23.30
2023-04-03T21:59:05.624Z,23.30
2023-04-03T22:04:10.093Z,23.20
2023-04-03T22:09:14.823Z,23.00
2023-04-03T22:14:19.074Z,22.80
2023-04-03T22:19:24.300Z,22.60
2023-04-03T22:24:28.569Z,22.60
2023-04-03T22:29:32.802Z,22.60
2023-04-03T22:34:40.003Z,22.50
2023-04-03T22:39:44.140Z,22.50
2023-04-03T22:44:48.166Z,22.50
2023-04-03T22:49:52.207Z,22.50
2023-04-03T22:54:57.980Z,22.40
2023-04-03T23:00:03.858Z,22.30
2023-04-03T23:05:08.941Z,22.20
2023-04-03T23:10:13.346Z,22.10
2023-04-03T23:15:19.938Z,22.10
2023-04-03T23:20:23.876Z,22.00
2023-04-03T23:25:27.994Z,22.00
2023-04-03T23:30:32.767Z,22.00
2023-04-03T23:35:49.295Z,21.90
2023-04-03T23:40:53.304Z,21.90
2023-04-03T23:45:57.897Z,22.00
2023-04-03T23:51:02.221Z,21.90
2023-04-03T23:56:11.764Z,22.20
